Time;durP1;ratioP1;P1;durP2;ratioP2;P2;SDS_P1;SDS_P2;PMS_P1;PMS_P2;Temp;Humidity;BMP_temperature;BMP_pressure;BME280_temperature;BME280_humidity;BME280_pressure;Samples;Min_cycle;Max_cycle;Signal;HPM_P1;HPM_P2
2022/10/31 00:01:29;;;;;;;4.68;2.30;;;;;;;11.98;100.00;101944.31;5013058;28;20026;-39
2022/10/31 00:03:54;;;;;;;3.72;2.33;;;;;;;11.99;100.00;101946.88;5013311;28;20033;-39
2022/10/31 00:06:21;;;;;;;3.38;2.40;;;;;;;12.02;100.00;101943.00;5013310;28;20103;-39
2022/10/31 00:08:51;;;;;;;9.30;3.88;;;;;;;12.06;100.00;101947.06;5012537;28;20401;-41
2022/10/31 00:11:16;;;;;;;4.30;2.40;;;;;;;12.07;100.00;101946.88;5013451;28;20038;-41
2022/10/31 00:13:41;;;;;;;4.82;2.10;;;;;;;12.08;100.00;101951.28;5014059;28;20080;-41
2022/10/31 00:16:14;;;;;;;7.45;2.58;;;;;;;12.08;100.00;101963.91;5014005;28;20034;-39
2022/10/31 00:18:39;;;;;;;4.40;2.10;;;;;;;12.10;100.00;101963.75;5013866;28;20022;-41
2022/10/31 00:21:05;;;;;;;7.47;2.35;;;;;;;12.13;100.00;101961.56;5013794;28;20034;-40
2022/10/31 00:23:30;;;;;;;5.68;2.70;;;;;;;12.15;100.00;101958.72;5013817;28;20018;-41
2022/10/31 00:26:01;;;;;;;4.07;2.08;;;;;;;12.17;100.00;101959.41;5013687;28;20033;-40
2022/10/31 00:28:26;;;;;;;4.57;2.20;;;;;;;12.15;100.00;101954.16;5012978;28;20037;-40
2022/10/31 00:30:52;;;;;;;5.35;2.50;;;;;;;12.15;100.00;101954.16;5013133;28;20486;-40
2022/10/31 00:33:17;;;;;;;5.75;2.45;;;;;;;12.13;100.00;101961.56;5011954;28;20025;-40
2022/10/31 00:35:42;;;;;;;4.55;2.30;;;;;;;12.12;100.00;101965.28;5013306;28;20370;-40
2022/10/31 00:38:07;;;;;;;5.30;2.97;;;;;;;12.11;100.00;101970.84;5013201;28;20480;-41
2022/10/31 00:40:33;;;;;;;8.85;2.92;;;;;;;12.08;100.00;101962.09;5013316;28;20033;-40
2022/10/31 00:42:58;;;;;;;5.00;3.10;;;;;;;12.06;100.00;101964.09;5013354;28;20048;-41
2022/10/31 00:45:23;;;;;;;6.20;2.90;;;;;;;12.05;100.00;101962.38;5012336;28;20405;-41
2022/10/31 00:47:49;;;;;;;6.60;2.80;;;;;;;12.02;100.00;101962.72;5012981;28;20465;-40
2022/10/31 00:50:14;;;;;;;6.80;3.15;;;;;;;12.02;100.00;101968.13;5013038;28;20496;-40
2022/10/31 00:52:39;;;;;;;8.15;3.33;;;;;;;12.01;100.00;101961.03;5012763;28;20037;-39
2022/10/31 00:55:05;;;;;;;7.68;3.03;;;;;;;12.01;100.00;101954.81;5012890;28;20129;-39
2022/10/31 00:57:30;;;;;;;13.25;3.72;;;;;;;12.01;100.00;101960.19;5012337;28;20532;-39
2022/10/31 00:59:55;;;;;;;5.32;2.88;;;;;;;11.97;100.00;101954.28;5013027;28;20121;-41
2022/10/31 01:02:21;;;;;;;8.90;3.63;;;;;;;11.96;100.00;101954.44;5012205;28;20060;-40
2022/10/31 01:04:46;;;;;;;10.30;3.33;;;;;;;11.93;100.00;101950.22;5012859;28;20072;-40
2022/10/31 01:07:13;;;;;;;8.02;4.55;;;;;;;11.97;100.00;101951.56;5012203;28;20080;-39
2022/10/31 01:09:39;;;;;;;5.97;3.67;;;;;;;11.97;100.00;101946.19;5012619;28;20106;-41
2022/10/31 01:12:04;;;;;;;7.22;3.63;;;;;;;11.96;100.00;101949.91;5012259;28;20096;-40
2022/10/31 01:14:29;;;;;;;6.47;4.40;;;;;;;11.96;100.00;101952.59;5011180;28;21106;-39
2022/10/31 01:16:55;;;;;;;6.65;3.50;;;;;;;11.95;100.00;101953.59;5012773;28;20034;-41
2022/10/31 01:19:20;;;;;;;8.13;4.13;;;;;;;11.94;100.00;101954.59;5012927;28;20030;-40
2022/10/31 01:21:45;;;;;;;7.72;4.15;;;;;;;11.91;100.00;101959.50;5012668;28;20025;-39
2022/10/31 01:24:11;;;;;;;6.72;4.03;;;;;;;11.92;100.00;101955.78;5012757;28;20038;-40
2022/10/31 01:26:36;;;;;;;7.70;4.05;;;;;;;11.88;100.00;101943.63;5012911;28;20034;-41
2022/10/31 01:29:04;;;;;;;8.45;4.10;;;;;;;11.85;100.00;101955.56;5012302;28;20089;-39
2022/10/31 01:31:32;;;;;;;9.32;4.90;;;;;;;11.83;100.00;101946.78;5012354;28;20073;-40
2022/10/31 01:33:57;;;;;;;;;;;;;;;11.81;100.00;101943.41;5012039;28;20045;-42
2022/10/31 01:36:25;;;;;;;9.07;4.72;;;;;;;11.85;100.00;101933.97;5012190;28;19914;-40
2022/10/31 01:38:52;;;;;;;12.13;4.38;;;;;;;11.84;100.00;101943.06;5012298;28;20033;-40
2022/10/31 01:41:20;;;;;;;7.03;5.07;;;;;;;11.84;100.00;101943.06;5012272;28;20025;-41
2022/10/31 01:43:48;;;;;;;9.10;4.05;;;;;;;11.82;100.00;101945.06;5012123;28;20030;-39
2022/10/31 01:46:15;;;;;;;9.48;4.82;;;;;;;11.81;100.00;101943.41;5010871;28;20032;-40
2022/10/31 01:48:41;;;;;;;10.10;4.97;;;;;;;11.79;100.00;101940.00;5010944;28;20036;-40
2022/10/31 01:51:08;;;;;;;12.70;5.03;;;;;;;11.77;100.00;101937.50;4978076;28;20113;-39
2022/10/31 01:53:35;;;;;;;11.33;4.90;;;;;;;11.76;100.00;101932.25;5010759;28;20022;-41
2022/10/31 01:56:00;;;;;;;10.70;4.80;;;;;;;11.72;100.00;101934.44;5013451;28;20457;-40
2022/10/31 01:58:28;;;;;;;9.90;5.72;;;;;;;11.69;100.00;101929.38;5014242;28;20033;-40
2022/10/31 02:00:56;;;;;;;6.68;4.38;;;;;;;11.67;100.00;101930.53;5012691;28;20022;-39
2022/10/31 02:03:22;;;;;;;11.98;5.28;;;;;;;11.62;100.00;101931.88;5011281;28;20029;-40
2022/10/31 02:05:48;;;;;;;10.02;5.20;;;;;;;11.60;100.00;101928.47;5011643;28;20465;-39
2022/10/31 02:08:18;;;;;;;7.60;4.50;;;;;;;11.54;100.00;101926.44;5010734;28;20077;-40
2022/10/31 02:10:44;;;;;;;10.88;5.30;;;;;;;11.50;100.00;101924.22;5011572;28;20049;-40
2022/10/31 02:13:10;;;;;;;8.82;5.25;;;;;;;11.46;100.00;101922.88;5011518;28;20512;-40
2022/10/31 02:15:36;;;;;;;12.80;5.38;;;;;;;11.44;100.00;101925.72;5011686;28;20145;-40
2022/10/31 02:18:02;;;;;;;9.25;5.47;;;;;;;11.38;100.00;101924.50;5011692;28;20056;-40
2022/10/31 02:20:33;;;;;;;16.08;5.78;;;;;;;11.33;100.00;101928.69;5009727;28;20037;-40
2022/10/31 02:23:22;;;;;;;9.85;6.15;;;;;;;11.32;100.00;101932.38;5000355;28;20429;-40
2022/10/31 02:26:07;;;;;;;14.35;6.32;;;;;;;11.29;100.00;101924.63;5003911;28;20029;-40
2022/10/31 02:28:35;;;;;;;13.65;6.28;;;;;;;11.25;100.00;101940.28;5009767;28;20033;-41
2022/10/31 02:31:06;;;;;;;9.68;6.18;;;;;;;11.20;100.00;101926.44;5010093;28;20062;-41
2022/10/31 02:33:52;;;;;;;10.82;5.95;;;;;;;11.13;100.00;101923.50;5010952;28;20033;-40
2022/10/31 02:36:25;;;;;;;10.27;5.95;;;;;;;11.07;100.00;101929.56;5010224;28;20040;-40
2022/10/31 02:38:56;;;;;;;7.88;4.63;;;;;;;11.03;100.00;101930.03;5011209;28;20022;-40
2022/10/31 02:41:31;;;;;;;12.63;5.80;;;;;;;10.93;100.00;101925.59;5011393;28;20033;-40
2022/10/31 02:44:15;;;;;;;11.55;5.40;;;;;;;10.88;100.00;101924.38;5010002;28;20047;-42
2022/10/31 02:47:03;;;;;;;9.35;5.90;;;;;;;10.80;100.00;101922.47;5011416;28;20022;-41
2022/10/31 02:50:09;;;;;;;15.15;6.32;;;;;;;10.74;100.00;101923.06;5010486;28;20504;-40
2022/10/31 02:52:35;;;;;;;13.60;6.22;;;;;;;10.70;100.00;101917.16;4915237;29;20038;-40
2022/10/31 02:55:29;;;;;;;39.03;8.00;;;;;;;10.64;100.00;101920.50;4997599;28;20156;-39
2022/10/31 02:58:11;;;;;;;32.00;7.75;;;;;;;10.60;100.00;101924.50;5011272;28;20041;-40
2022/10/31 03:00:42;;;;;;;18.77;7.53;;;;;;;10.58;100.00;101923.78;4999571;28;20026;-39
2022/10/31 03:03:16;;;;;;;25.23;7.88;;;;;;;10.55;100.00;101921.41;5010890;28;20132;-41
2022/10/31 03:08:44;;;;;;;22.08;7.25;;;;;;;10.50;100.00;101921.03;5061836;22;20057;-34
2022/10/31 03:11:09;;;;;;;17.13;7.85;;;;;;;10.49;100.00;101924.75;5046723;28;20061;-36
2022/10/31 03:13:41;;;;;;;19.75;8.73;;;;;;;10.48;100.00;101933.81;5033889;28;20472;-36
2022/10/31 03:16:18;;;;;;;17.60;7.88;;;;;;;10.44;100.00;101925.19;5034109;28;20483;-36
2022/10/31 03:18:50;;;;;;;23.15;8.23;;;;;;;10.38;100.00;101924.97;5032077;28;20033;-37
2022/10/31 03:21:32;;;;;;;18.45;7.63;;;;;;;10.38;100.00;101922.28;5033429;28;20033;-37
2022/10/31 03:23:59;;;;;;;16.70;8.23;;;;;;;10.41;100.00;101930.06;5032316;28;20049;-36
2022/10/31 03:26:24;;;;;;;22.42;8.65;;;;;;;10.38;100.00;101928.50;5034057;28;20036;-37
2022/10/31 03:29:00;;;;;;;24.52;9.20;;;;;;;10.35;100.00;101920.75;5033325;28;20053;-37
2022/10/31 03:31:30;;;;;;;15.38;7.78;;;;;;;10.33;100.00;101925.44;5033375;28;20160;-38
2022/10/31 03:33:58;;;;;;;17.75;8.57;;;;;;;10.30;100.00;101931.13;5032129;28;20098;-37
2022/10/31 03:36:24;;;;;;;16.50;8.05;;;;;;;10.24;100.00;101927.19;5033523;28;20108;-37
2022/10/31 03:38:50;;;;;;;15.55;8.02;;;;;;;10.23;100.00;101930.00;5032958;28;20033;-37
2022/10/31 03:41:21;;;;;;;16.95;8.77;;;;;;;10.19;100.00;101928.59;5033161;28;20468;-37
2022/10/31 03:44:00;;;;;;;15.27;7.95;;;;;;;10.14;100.00;101929.09;5031717;28;20037;-37
2022/10/31 03:46:26;;;;;;;16.52;8.48;;;;;;;10.11;100.00;101932.94;5032005;28;20029;-37
2022/10/31 03:48:52;;;;;;;18.35;9.93;;;;;;;10.09;100.00;101928.69;5032385;28;20075;-37
2022/10/31 03:51:24;;;;;;;25.33;9.73;;;;;;;10.10;100.00;101925.00;5032812;28;20440;-37
2022/10/31 03:53:56;;;;;;;14.63;8.48;;;;;;;10.08;100.00;101916.22;5032263;28;20611;-37
2022/10/31 03:56:30;;;;;;;18.13;8.65;;;;;;;10.06;100.00;101923.63;5031804;28;20041;-36
2022/10/31 03:59:02;;;;;;;17.67;8.80;;;;;;;10.03;100.00;101931.97;5033006;28;20437;-37
2022/10/31 04:01:30;;;;;;;15.38;9.15;;;;;;;9.99;100.00;101917.16;5032888;28;20044;-37
2022/10/31 04:03:56;;;;;;;18.67;9.30;;;;;;;9.97;100.00;101933.44;5031465;28;20033;-38
2022/10/31 04:06:23;;;;;;;14.93;9.18;;;;;;;9.94;100.00;101928.34;5031704;28;20030;-37
2022/10/31 04:08:51;;;;;;;12.30;8.65;;;;;;;9.91;100.00;101931.34;5032517;28;20476;-36
2022/10/31 04:11:18;;;;;;;15.07;8.50;;;;;;;9.92;100.00;101940.25;5031233;28;20037;-37
2022/10/31 04:13:44;;;;;;;20.75;11.30;;;;;;;9.98;100.00;101936.97;5032538;28;20514;-37
2022/10/31 04:16:09;;;;;;;18.40;9.95;;;;;;;9.96;100.00;101938.97;5032594;28;20128;-37
2022/10/31 04:18:34;;;;;;;24.25;10.32;;;;;;;9.97;100.00;101937.97;5030768;28;20075;-37
2022/10/31 04:21:05;;;;;;;17.05;10.10;;;;;;;9.97;100.00;101946.03;5032077;28;20037;-37
2022/10/31 04:23:31;;;;;;;24.55;11.50;;;;;;;9.92;100.00;101943.78;5032648;28;20025;-37
2022/10/31 04:25:56;;;;;;;18.17;9.82;;;;;;;9.86;100.00;101934.50;5032227;28;20056;-37
2022/10/31 04:28:22;;;;;;;24.45;10.75;;;;;;;9.84;100.00;101941.84;5030934;28;20029;-38
2022/10/31 04:30:47;;;;;;;16.67;9.85;;;;;;;9.83;100.00;101934.78;5030775;28;20033;-37
2022/10/31 04:33:13;;;;;;;20.73;9.88;;;;;;;9.81;100.00;101936.78;5032274;28;20514;-37
2022/10/31 04:35:38;;;;;;;20.85;10.55;;;;;;;9.80;100.00;101932.41;5029504;28;20025;-37
2022/10/31 04:38:03;;;;;;;17.08;9.75;;;;;;;9.81;100.00;101930.56;5032143;28;20021;-37
2022/10/31 04:40:29;;;;;;;16.38;8.70;;;;;;;9.81;100.00;101931.41;5031767;28;20029;-37
2022/10/31 04:42:54;;;;;;;15.23;9.60;;;;;;;9.81;100.00;101926.03;5032287;28;20033;-37
2022/10/31 04:45:19;;;;;;;22.13;10.63;;;;;;;9.80;100.00;101924.34;5031872;28;20112;-38
2022/10/31 04:47:45;;;;;;;20.92;9.73;;;;;;;9.79;100.00;101924.47;5032120;28;20038;-36
2022/10/31 04:50:10;;;;;;;21.23;10.27;;;;;;;9.81;100.00;101917.13;5031613;28;20037;-37
2022/10/31 04:52:42;;;;;;;15.38;9.35;;;;;;;9.79;100.00;101919.94;5030836;28;20033;-37
2022/10/31 04:55:08;;;;;;;19.27;10.30;;;;;;;9.72;100.00;101924.25;5031926;28;20094;-36
2022/10/31 04:57:41;;;;;;;19.20;10.65;;;;;;;9.66;100.00;101919.47;5030437;28;20032;-36
2022/10/31 05:00:09;;;;;;;21.55;11.45;;;;;;;9.64;100.00;101926.84;5031461;28;20044;-36
2022/10/31 05:02:34;;;;;;;22.85;10.65;;;;;;;9.62;100.00;101921.59;5031810;28;20051;-37
2022/10/31 05:04:59;;;;;;;22.67;10.98;;;;;;;9.62;100.00;101936.91;5031705;28;20469;-36
2022/10/31 05:07:25;;;;;;;28.23;11.48;;;;;;;9.61;100.00;101927.13;5031068;28;20554;-37
2022/10/31 05:09:50;;;;;;;20.20;10.70;;;;;;;9.60;100.00;101928.97;5031495;28;20498;-37
2022/10/31 05:12:15;;;;;;;19.27;11.77;;;;;;;9.61;100.00;101925.31;5030088;28;20115;-37
2022/10/31 05:14:41;;;;;;;21.60;10.85;;;;;;;9.62;100.00;101926.16;5031617;28;20105;-37
2022/10/31 05:17:06;;;;;;;19.38;11.20;;;;;;;9.62;100.00;101921.59;5031003;28;20112;-37
2022/10/31 05:19:31;;;;;;;25.92;10.75;;;;;;;9.62;100.00;101926.16;5031497;28;20057;-36
2022/10/31 05:21:57;;;;;;;21.88;11.15;;;;;;;9.60;100.00;101912.84;5028508;28;20025;-37
2022/10/31 05:24:22;;;;;;;29.27;11.35;;;;;;;9.59;100.00;101907.63;5020143;28;20033;-36
2022/10/31 05:26:50;;;;;;;30.23;13.73;;;;;;;9.61;100.00;101906.50;5030623;28;20036;-35
2022/10/31 05:29:15;;;;;;;;;;;;;;;9.57;100.00;101904.25;5023699;28;20041;-37
2022/10/31 05:31:40;;;;;;;26.25;11.85;;;;;;;9.55;100.00;101904.38;5030524;28;20020;-37
2022/10/31 05:34:06;;;;;;;23.42;12.32;;;;;;;9.50;100.00;101908.50;5043198;28;20120;-37
2022/10/31 05:36:31;;;;;;;24.88;12.43;;;;;;;9.47;100.00;101906.13;5029330;28;20140;-37
2022/10/31 05:38:56;;;;;;;30.85;13.10;;;;;;;9.45;100.00;101899.06;5031118;28;20053;-36
2022/10/31 05:41:22;;;;;;;25.38;13.23;;;;;;;9.46;100.00;101905.28;5030452;28;20037;-38
2022/10/31 05:43:47;;;;;;;30.58;14.32;;;;;;;9.45;100.00;101899.06;5030806;28;20083;-38
2022/10/31 05:46:12;;;;;;;26.92;13.57;;;;;;;9.45;100.00;101904.44;5030258;28;20086;-38
2022/10/31 05:48:38;;;;;;;32.35;14.30;;;;;;;9.44;100.00;101908.09;5031181;28;20064;-37
2022/10/31 05:51:03;;;;;;;32.25;14.32;;;;;;;9.42;100.00;101899.34;5031092;28;20026;-37
2022/10/31 05:53:28;;;;;;;28.65;14.23;;;;;;;9.44;100.00;101894.66;5031365;28;20017;-37
2022/10/31 05:55:54;;;;;;;23.20;12.80;;;;;;;9.44;100.00;101900.03;5031039;28;20073;-38
2022/10/31 05:58:19;;;;;;;30.33;14.52;;;;;;;9.42;100.00;101902.03;5030678;28;20033;-38
2022/10/31 06:00:44;;;;;;;26.23;13.85;;;;;;;9.42;100.00;101898.50;5030741;28;20132;-37
2022/10/31 06:03:10;;;;;;;29.00;15.65;;;;;;;9.40;100.00;101897.78;5029991;28;20030;-37
2022/10/31 06:05:35;;;;;;;33.50;15.38;;;;;;;9.37;100.00;101901.66;5010027;28;20425;-37
2022/10/31 06:08:00;;;;;;;33.25;15.68;;;;;;;9.36;100.00;101893.72;5030368;28;20057;-37
2022/10/31 06:10:27;;;;;;;30.30;15.07;;;;;;;9.32;100.00;101895.88;5031283;28;20452;-38
2022/10/31 06:12:52;;;;;;;40.67;15.88;;;;;;;9.29;100.00;101882.72;5030284;28;20022;-37
2022/10/31 06:15:17;;;;;;;27.42;14.57;;;;;;;9.31;100.00;101885.28;5031542;28;20150;-36
2022/10/31 06:17:43;;;;;;;30.42;15.63;;;;;;;9.31;100.00;101891.47;5031080;28;20049;-37
2022/10/31 06:20:09;;;;;;;38.47;16.42;;;;;;;9.32;100.00;101901.25;5031407;28;20038;-37
2022/10/31 06:22:34;;;;;;;38.38;17.15;;;;;;;9.33;100.00;101904.78;5030145;28;20037;-37
2022/10/31 06:24:59;;;;;;;35.15;17.95;;;;;;;9.33;100.00;101904.78;5031534;28;20037;-38
2022/10/31 06:27:25;;;;;;;38.58;16.85;;;;;;;9.33;100.00;101905.63;5030486;28;20021;-37
2022/10/31 06:29:51;;;;;;;40.17;18.23;;;;;;;9.32;100.00;101903.94;5029532;28;20044;-37
2022/10/31 06:32:17;;;;;;;31.10;16.02;;;;;;;9.33;100.00;101905.63;5030439;28;20048;-37
2022/10/31 06:34:44;;;;;;;37.47;18.15;;;;;;;9.40;100.00;101906.72;5028732;28;20017;-37
2022/10/31 06:37:11;;;;;;;39.53;18.67;;;;;;;9.41;100.00;101900.34;5030310;28;20427;-38
2022/10/31 06:39:36;;;;;;;45.70;18.80;;;;;;;9.46;100.00;101902.59;5028246;28;20449;-37
2022/10/31 06:42:02;;;;;;;39.22;19.42;;;;;;;9.52;100.00;101906.53;5029041;28;20037;-40
2022/10/31 06:44:27;;;;;;;40.70;20.35;;;;;;;9.57;100.00;101896.19;5028971;28;20610;-38
2022/10/31 06:46:53;;;;;;;34.55;18.20;;;;;;;9.61;100.00;101897.56;5028529;28;20117;-39
2022/10/31 06:49:18;;;;;;;37.63;20.25;;;;;;;9.63;100.00;101901.78;5028381;28;20079;-38
2022/10/31 06:51:47;;;;;;;39.30;19.88;;;;;;;9.65;100.00;101899.78;5030244;28;20037;-38
2022/10/31 06:54:12;;;;;;;42.70;19.95;;;;;;;9.67;100.00;101907.72;5028410;28;20036;-37
2022/10/31 06:56:37;;;;;;;48.30;22.38;;;;;;;9.72;100.00;101915.34;5029706;28;20105;-38
2022/10/31 06:59:03;;;;;;;44.58;21.98;;;;;;;9.73;100.00;101923.25;5029842;28;20072;-38
2022/10/31 07:01:28;;;;;;;44.28;21.50;;;;;;;9.78;100.00;101923.66;5029593;28;20425;-38
2022/10/31 07:03:53;;;;;;;45.92;21.30;;;;;;;9.83;100.00;101929.41;5029659;28;20034;-39
2022/10/31 07:06:19;;;;;;;47.17;22.15;;;;;;;9.91;100.00;101925.13;5029431;28;20021;-39
2022/10/31 07:08:44;;;;;;;45.30;20.92;;;;;;;9.97;100.00;101921.84;5029464;28;20045;-39
2022/10/31 07:11:09;;;;;;;50.65;21.63;;;;;;;10.00;100.00;101932.28;5029343;28;20183;-37
2022/10/31 07:13:35;;;;;;;46.70;20.50;;;;;;;10.08;100.00;101932.38;5029352;28;20056;-38
2022/10/31 07:16:03;;;;;;;62.92;23.92;;;;;;;10.18;100.00;101937.69;5029382;28;20025;-39
2022/10/31 07:18:28;;;;;;;60.78;23.80;;;;;;;10.17;100.00;101942.22;5028919;28;20068;-38
2022/10/31 07:20:53;;;;;;;48.75;22.15;;;;;;;10.25;100.00;101936.94;5029603;28;20112;-38
2022/10/31 07:23:19;;;;;;;47.65;22.90;;;;;;;10.36;100.00;101932.34;5029140;28;20030;-37
2022/10/31 07:25:44;;;;;;;44.05;22.45;;;;;;;10.49;100.00;101935.50;5030520;28;20045;-36
2022/10/31 07:28:10;;;;;;;47.58;21.50;;;;;;;10.67;100.00;101944.41;5028326;28;20048;-38
2022/10/31 07:30:35;;;;;;;46.35;22.27;;;;;;;10.78;100.00;101940.63;5030242;28;20056;-38
2022/10/31 07:33:01;;;;;;;43.47;21.45;;;;;;;10.87;100.00;101949.59;5030310;28;20037;-38
2022/10/31 07:35:28;;;;;;;40.05;20.88;;;;;;;10.99;100.00;101945.66;5029861;28;20025;-38
2022/10/31 07:37:54;;;;;;;39.15;20.50;;;;;;;11.11;100.00;101938.16;5026178;28;20507;-37
2022/10/31 07:40:20;;;;;;;44.78;21.13;;;;;;;11.35;100.00;101938.31;5029836;28;20026;-36
2022/10/31 07:42:47;;;;;;;39.28;20.70;;;;;;;11.44;100.00;101933.81;5030375;28;20034;-39
2022/10/31 07:45:15;;;;;;;35.08;20.08;;;;;;;11.80;100.00;101928.22;5030416;28;20034;-37
2022/10/31 07:47:48;;;;;;;;;;;;;;;12.29;100.00;101929.19;5013031;28;20029;-37
2022/10/31 07:50:25;;;;;;;37.55;18.38;;;;;;;12.66;100.00;101922.47;5028867;28;20012;-37
2022/10/31 07:53:01;;;;;;;33.25;17.67;;;;;;;13.09;100.00;101916.88;5029111;28;20040;-36
2022/10/31 07:55:27;;;;;;;35.42;15.85;;;;;;;13.20;100.00;101919.22;5034190;28;20039;-37
2022/10/31 07:58:12;;;;;;;34.70;16.35;;;;;;;13.66;100.00;101892.34;5034081;28;20025;-37
2022/10/31 08:00:40;;;;;;;33.85;17.08;;;;;;;13.66;100.00;101881.53;5033765;28;20365;-37
2022/10/31 08:03:08;;;;;;;32.08;16.50;;;;;;;13.79;100.00;101887.22;5034051;28;20064;-38
2022/10/31 08:05:33;;;;;;;;;;;;;;;14.03;100.00;101888.09;5032739;28;20623;-39
2022/10/31 08:07:58;;;;;;;33.80;15.05;;;;;;;14.51;100.00;101883.34;5033075;28;19960;-38
2022/10/31 08:10:25;;;;;;;27.88;14.35;;;;;;;14.59;99.97;101886.00;5032496;28;20025;-38
2022/10/31 08:13:08;;;;;;;23.98;14.75;;;;;;;14.97;99.28;101891.38;5032356;28;20136;-36
2022/10/31 08:15:36;;;;;;;22.08;13.55;;;;;;;15.35;97.53;101891.34;5033753;28;20049;-36
2022/10/31 08:18:02;;;;;;;23.98;13.35;;;;;;;15.80;95.16;101897.56;5032668;28;20025;-37
2022/10/31 08:20:28;;;;;;;31.17;14.23;;;;;;;15.67;92.83;101892.78;5033956;28;20483;-38
2022/10/31 08:23:01;;;;;;;24.75;13.70;;;;;;;15.83;91.52;101891.75;5032268;28;20048;-38
2022/10/31 08:25:28;;;;;;;27.25;13.75;;;;;;;16.54;90.96;101885.56;5032885;28;20030;-37
2022/10/31 08:27:54;;;;;;;26.50;13.73;;;;;;;16.79;88.03;101896.88;5032855;28;20140;-37
2022/10/31 08:30:21;;;;;;;25.25;12.73;;;;;;;16.57;86.32;101890.59;5030244;28;20025;-37
2022/10/31 08:32:47;;;;;;;23.88;13.38;;;;;;;16.08;86.32;101883.25;5032401;28;20053;-37
2022/10/31 08:35:12;;;;;;;22.25;12.82;;;;;;;15.88;87.70;101889.31;5032578;28;20025;-37
2022/10/31 08:37:38;;;;;;;36.92;14.25;;;;;;;15.36;89.87;101888.41;5032758;28;20108;-37
2022/10/31 08:40:05;;;;;;;28.05;13.50;;;;;;;15.33;92.36;101882.53;5032872;28;20025;-37
2022/10/31 08:42:30;;;;;;;26.10;13.77;;;;;;;15.87;92.88;101881.34;5032561;28;20536;-37
2022/10/31 08:44:55;;;;;;;34.28;13.73;;;;;;;15.98;89.32;101884.41;5032583;28;20125;-37
2022/10/31 08:47:21;;;;;;;23.98;13.38;;;;;;;16.31;88.44;101870.31;5032833;28;20057;-37
2022/10/31 08:49:46;;;;;;;24.10;13.18;;;;;;;16.73;86.80;101879.44;5032104;28;20067;-37
2022/10/31 08:52:11;;;;;;;24.00;13.60;;;;;;;17.31;83.82;101873.78;5032427;28;20030;-37
2022/10/31 08:54:37;;;;;;;20.27;13.35;;;;;;;17.29;82.24;101873.97;5031849;28;20052;-37
2022/10/31 08:57:02;;;;;;;25.42;13.68;;;;;;;16.80;84.57;101871.38;5032116;28;20108;-37
2022/10/31 08:59:27;;;;;;;23.98;13.75;;;;;;;15.98;87.14;101868.13;5032319;28;20041;-36
2022/10/31 09:01:53;;;;;;;23.98;14.20;;;;;;;16.01;87.97;101872.31;5029572;28;20384;-36
2022/10/31 09:04:18;;;;;;;35.13;14.73;;;;;;;15.37;90.93;101864.84;5031477;28;20026;-37
2022/10/31 09:06:43;;;;;;;23.80;14.68;;;;;;;15.26;92.76;101862.59;5031552;28;20096;-36
2022/10/31 09:09:09;;;;;;;28.30;14.38;;;;;;;15.28;94.16;101855.97;5031934;28;20129;-35
2022/10/31 09:11:34;;;;;;;26.55;14.15;;;;;;;15.28;94.35;101849.72;5031454;28;20033;-38
2022/10/31 09:13:59;;;;;;;25.85;14.35;;;;;;;15.22;96.66;101856.72;5030268;28;20095;-38
2022/10/31 09:16:25;;;;;;;30.80;15.23;;;;;;;15.36;96.29;101846.88;5031550;28;20033;-38
2022/10/31 09:18:50;;;;;;;35.58;15.07;;;;;;;15.26;96.41;101846.34;5031440;28;20033;-37
2022/10/31 09:21:17;;;;;;;28.58;15.40;;;;;;;15.10;97.63;101841.94;5031500;28;20136;-37
2022/10/31 09:23:42;;;;;;;24.77;14.55;;;;;;;15.57;97.66;101844.22;5031098;28;20386;-38
2022/10/31 09:26:07;;;;;;;30.90;14.70;;;;;;;15.58;96.61;101832.34;5031780;28;20428;-37
2022/10/31 09:28:33;;;;;;;34.25;16.35;;;;;;;15.61;95.51;101831.09;5029818;28;20400;-38
2022/10/31 09:30:58;;;;;;;27.05;15.82;;;;;;;15.49;95.43;101825.34;5031222;28;20035;-38
2022/10/31 09:33:24;;;;;;;29.83;15.32;;;;;;;15.10;97.30;101821.09;5031675;28;20049;-38
2022/10/31 09:35:49;;;;;;;31.98;15.30;;;;;;;15.41;97.38;101822.75;5031826;28;20053;-38
2022/10/31 09:38:20;;;;;;;26.65;14.65;;;;;;;15.64;96.30;101817.19;5031283;28;20036;-38
2022/10/31 09:40:48;;;;;;;31.13;16.67;;;;;;;15.48;96.58;101818.25;5031192;28;20472;-38
2022/10/31 09:43:37;;;;;;;27.95;15.75;;;;;;;15.74;95.77;101815.00;5030988;28;20022;-37
2022/10/31 09:46:26;;;;;;;29.10;15.18;;;;;;;15.72;95.62;101816.25;5031317;28;20034;-38
2022/10/31 09:49:07;;;;;;;27.50;15.35;;;;;;;15.72;95.16;101810.84;5031078;28;20579;-38
2022/10/31 09:51:34;;;;;;;27.50;15.75;;;;;;;15.47;96.83;101804.88;5029740;28;20496;-37
2022/10/31 09:54:05;;;;;;;29.63;16.42;;;;;;;15.42;97.47;101807.31;5030775;28;20026;-38
2022/10/31 09:56:31;;;;;;;31.95;15.32;;;;;;;15.42;97.76;101797.28;5030846;28;20324;-38
2022/10/31 09:59:00;;;;;;;28.92;14.65;;;;;;;15.63;97.46;101792.94;5029581;28;20511;-37
2022/10/31 10:01:44;;;;;;;33.28;15.40;;;;;;;15.61;96.74;101792.28;5029597;28;20097;-38
2022/10/31 10:04:16;;;;;;;32.50;15.85;;;;;;;15.84;96.87;101784.00;5030976;28;20025;-37
2022/10/31 10:06:45;;;;;;;26.92;14.40;;;;;;;16.04;97.38;101785.03;5030549;28;20035;-37
2022/10/31 10:09:10;;;;;;;28.13;14.90;;;;;;;16.09;94.71;101788.00;5030095;28;20033;-38
2022/10/31 10:12:09;;;;;;;26.08;13.55;;;;;;;16.08;94.09;101778.16;5031393;28;20056;-38
2022/10/31 10:14:34;;;;;;;24.70;14.18;;;;;;;15.87;94.81;101779.00;5031822;28;20057;-38
2022/10/31 10:17:12;;;;;;;30.90;14.07;;;;;;;15.84;95.82;101779.41;5030646;28;20535;-39
2022/10/31 10:19:43;;;;;;;30.60;13.93;;;;;;;15.95;95.97;101776.16;5030233;28;20163;-38
2022/10/31 10:22:47;;;;;;;21.85;13.27;;;;;;;16.09;97.12;101779.00;5030135;28;20026;-38
2022/10/31 10:25:33;;;;;;;25.52;13.02;;;;;;;16.18;96.26;101764.25;5009016;28;20053;-38
2022/10/31 10:28:10;;;;;;;21.73;12.20;;;;;;;16.25;94.70;101759.72;5023266;28;20033;-37
2022/10/31 10:30:46;;;;;;;25.13;13.73;;;;;;;16.12;94.86;101748.75;5029137;28;20022;-38
2022/10/31 10:33:22;;;;;;;28.23;13.60;;;;;;;16.31;94.82;101736.38;5029241;28;20473;-38
2022/10/31 10:35:59;;;;;;;26.75;14.63;;;;;;;16.51;94.69;101736.47;5029060;28;20031;-38
2022/10/31 10:38:33;;;;;;;34.22;16.35;;;;;;;16.57;93.81;101738.41;5028884;28;20056;-38
2022/10/31 10:41:02;;;;;;;26.42;14.82;;;;;;;16.59;93.85;101730.91;5028260;28;20480;-37
2022/10/31 10:43:33;;;;;;;27.77;14.10;;;;;;;16.63;94.28;101734.91;5029688;28;20030;-38
2022/10/31 10:49:18;;;;;;;25.33;13.73;;;;;;;16.54;94.37;101733.38;5028893;28;20041;-38
2022/10/31 10:51:59;;;;;;;;;;;;;;;16.74;92.49;101737.03;5028219;28;20057;-39
2022/10/31 10:54:36;;;;;;;22.35;13.98;;;;;;;16.71;92.24;101737.44;5030091;28;19909;-37
2022/10/31 10:57:11;;;;;;;26.08;15.13;;;;;;;16.53;92.75;101739.84;5029773;28;20106;-37
2022/10/31 10:59:37;;;;;;;27.17;15.05;;;;;;;16.44;93.50;101737.28;5029881;28;20400;-37
2022/10/31 11:02:03;;;;;;;30.23;15.55;;;;;;;16.32;94.25;101725.28;5029828;28;20037;-37
2022/10/31 11:04:34;;;;;;;30.13;16.15;;;;;;;16.31;94.77;101737.19;5029989;28;20041;-37
2022/10/31 11:07:05;;;;;;;27.75;15.23;;;;;;;16.35;95.76;101721.34;5029183;28;20539;-38
2022/10/31 11:09:30;;;;;;;34.70;15.40;;;;;;;16.57;96.70;101724.84;5028392;28;20033;-37
2022/10/31 11:11:56;;;;;;;35.53;15.82;;;;;;;16.86;97.38;101724.59;5029497;28;20037;-37
2022/10/31 11:14:22;;;;;;;30.77;15.25;;;;;;;17.25;93.72;101719.53;5030458;28;20121;-37
2022/10/31 11:16:53;;;;;;;26.50;14.23;;;;;;;17.78;90.54;101717.72;5027915;28;20099;-38
2022/10/31 11:19:22;;;;;;;37.05;13.65;;;;;;;18.20;87.05;101709.38;5011870;28;20022;-38
2022/10/31 11:21:48;;;;;;;27.90;13.43;;;;;;;18.50;83.96;101707.00;5029440;28;20030;-39
2022/10/31 11:24:16;;;;;;;27.45;13.30;;;;;;;18.66;83.17;101702.97;5028514;28;20032;-38